Time;durP1;ratioP1;P1;durP2;ratioP2;P2;SDS_P1;SDS_P2;PMS_P1;PMS_P2;Temp;Humidity;BMP_temperature;BMP_pressure;BME280_temperature;BME280_humidity;BME280_pressure;Samples;Min_cycle;Max_cycle;Signal;HPM_P1;HPM_P2
2022/06/03 00:02:37;;;;;;;;;;;;;;;17.01;53.24;101889.34;4926363;28;96821;-77
2022/06/03 00:05:15;;;;;;;;;;;;;;;16.91;52.92;101888.03;4924914;28;96951;-76
2022/06/03 00:07:48;;;;;;;;;;;;;;;16.89;52.97;101895.22;4930124;28;98948;-76
2022/06/03 00:10:32;;;;;;;;;;;;;;;16.73;53.98;101891.50;4928416;28;97625;-76
2022/06/03 00:13:02;;;;;;;;;;;;;;;17.05;53.18;101892.78;4928279;28;98933;-79
2022/06/03 00:15:47;;;;;;;;;;;;;;;17.13;52.97;101888.81;4928510;28;99265;-77
2022/06/03 00:18:20;;;;;;;;;;;;;;;17.70;51.72;101880.91;4927372;28;99278;-78
2022/06/03 00:20:54;;;;;;;;;;;;;;;17.64;51.46;101879.41;4927794;28;98910;-78
2022/06/03 00:23:29;;;;;;;;;;;;;;;17.44;51.86;101882.09;4931715;28;96823;-77
2022/06/03 00:26:09;;;;;;;;;;;;;;;17.56;51.59;101878.84;4937013;28;96753;-77
2022/06/03 00:28:43;;;;;;;;;;;;;;;16.91;53.79;101879.16;4935288;28;99152;-78
2022/06/03 00:31:15;;;;;;;;;;;;;;;17.00;53.65;101881.44;4929134;28;98335;-78
2022/06/03 00:33:59;;;;;;;;;;;;;;;16.93;53.86;101882.63;4927308;28;97832;-78
2022/06/03 00:36:34;;;;;;;;;;;;;;;16.87;53.98;101885.56;4914643;28;96969;-78
2022/06/03 00:39:04;;;;;;;;;;;;;;;16.59;55.10;101877.84;4927144;28;101826;-77
2022/06/03 00:41:36;;;;;;;;;;;;;;;16.87;54.27;101880.25;4925234;28;99485;-77
2022/06/03 00:44:19;;;;;;;;;;;;;;;16.82;53.80;101880.41;4929369;28;97228;-77
2022/06/03 00:46:54;;;;;;;;;;;;;;;16.83;53.65;101876.81;4930009;28;98393;-78
2022/06/03 00:49:31;;;;;;;;;;;;;;;16.79;54.12;101875.22;4926675;28;98211;-78
2022/06/03 00:52:11;;;;;;;;;;;;;;;16.80;54.31;101876.09;4930466;28;98952;-77
2022/06/03 00:54:49;;;;;;;;;;;;;;;16.65;54.33;101873.16;4925839;28;98876;-79
2022/06/03 00:57:28;;;;;;;;;;;;;;;16.63;54.61;101871.47;4929324;28;97131;-77
2022/06/03 01:00:08;;;;;;;;;;;;;;;16.53;55.04;101872.78;5079819;27;98205;-78
2022/06/03 01:02:50;;;;;;;;;;;;;;;16.52;55.06;101876.38;5056928;27;97234;-78
2022/06/03 01:05:25;;;;;;;;;;;;;;;16.55;54.94;101871.75;5053038;27;99935;-77
2022/06/03 01:07:55;;;;;;;;;;;;;;;16.32;55.36;101874.53;5056315;27;98971;-77
2022/06/03 01:10:30;;;;;;;;;;;;;;;16.66;54.14;101879.34;5059284;27;98938;-77
2022/06/03 01:13:06;;;;;;;;;;;;;;;16.84;53.50;101873.22;5058924;27;97607;-78
2022/06/03 01:15:39;;;;;;;;;;;;;;;16.40;54.62;101874.22;5061527;27;99104;-77
2022/06/03 01:18:16;;;;;;;;;;;;;;;16.85;53.39;101874.97;5063637;27;97733;-78
2022/06/03 01:20:46;;;;;;;;;;;;;;;17.09;52.68;101881.88;5066099;27;97356;-78
2022/06/03 01:23:27;;;;;;;;;;;;;;;17.23;52.33;101875.03;5063895;27;98001;-77
2022/06/03 01:26:14;;;;;;;;;;;;;;;17.02;52.44;101883.09;5060462;27;98908;-75
2022/06/03 01:28:59;;;;;;;;;;;;;;;16.59;54.33;101880.53;5058722;27;99223;-76
2022/06/03 01:31:38;;;;;;;;;;;;;;;16.47;54.95;101881.91;5054320;27;97246;-76
2022/06/03 01:34:14;;;;;;;;;;;;;;;16.89;53.79;101881.88;5060729;27;97229;-76
2022/06/03 01:36:47;;;;;;;;;;;;;;;16.75;53.92;101884.28;5055445;27;102981;-74
2022/06/03 01:39:28;;;;;;;;;;;;;;;16.50;54.49;101878.22;5059945;27;98862;-75
2022/06/03 01:42:22;;;;;;;;;;;;;;;16.32;54.63;101875.41;5049855;27;96987;-74
2022/06/03 01:44:57;;;;;;;;;;;;;;;16.41;54.82;101878.63;5052609;27;97147;-75
2022/06/03 01:47:41;;;;;;;;;;;;;;;16.43;54.83;101877.63;5055126;27;99206;-75
2022/06/03 01:50:22;;;;;;;;;;;;;;;16.25;55.61;101876.59;5058310;27;99033;-75
2022/06/03 01:53:00;;;;;;;;;;;;;;;16.25;55.92;101873.94;5054740;27;97030;-75
2022/06/03 01:55:42;;;;;;;;;;;;;;;16.28;56.16;101878.25;5065134;27;96925;-75
2022/06/03 01:58:18;;;;;;;;;;;;;;;16.30;55.95;101874.59;5056223;27;99297;-75
2022/06/03 02:00:48;;;;;;;;;;;;;;;16.17;56.11;101870.69;5037047;27;101233;-75
2022/06/03 02:03:31;;;;;;;;;;;;;;;16.41;55.81;101866.13;5042912;27;96890;-75
2022/06/03 02:06:12;;;;;;;;;;;;;;;16.38;55.70;101873.41;5049432;27;96842;-76
2022/06/03 02:08:53;;;;;;;;;;;;;;;16.33;55.27;101868.28;5045823;27;99089;-77
2022/06/03 02:11:37;;;;;;;;;;;;;;;16.24;55.95;101865.97;5036117;27;99345;-75
2022/06/03 02:14:14;;;;;;;;;;;;;;;16.04;56.60;101874.78;5033988;27;96976;-77
2022/06/03 02:16:57;;;;;;;;;;;;;;;16.00;56.79;101874.97;5026523;27;97040;-76
2022/06/03 02:19:38;;;;;;;;;;;;;;;16.19;56.36;101874.19;5027211;27;99127;-76
2022/06/03 02:22:23;;;;;;;;;;;;;;;16.02;57.10;101876.63;5026615;27;99155;-78
2022/06/03 02:25:05;;;;;;;;;;;;;;;16.24;56.41;101869.50;5032936;27;97291;-77
2022/06/03 02:27:40;;;;;;;;;;;;;;;16.17;56.38;101870.69;5026573;27;96873;-76
2022/06/03 02:30:25;;;;;;;;;;;;;;;16.03;57.06;101873.06;5026694;27;97806;-76
2022/06/03 02:33:15;;;;;;;;;;;;;;;15.85;57.57;101880.00;5031781;27;98786;-77
2022/06/03 02:35:52;;;;;;;;;;;;;;;15.89;57.66;101881.59;5033873;27;97246;-78
2022/06/03 02:38:27;;;;;;;;;;;;;;;15.89;57.49;101873.59;5032648;27;97277;-77
2022/06/03 02:41:13;;;;;;;;;;;;;;;15.90;57.37;101880.66;5027759;27;98869;-77
2022/06/03 02:43:48;;;;;;;;;;;;;;;15.89;57.31;101880.72;5023201;27;97953;-79
2022/06/03 02:46:29;;;;;;;;;;;;;;;15.93;57.37;101875.22;5033674;27;97475;-77
2022/06/03 02:49:13;;;;;;;;;;;;;;;15.88;57.29;101873.69;5027394;27;97018;-77
2022/06/03 02:51:50;;;;;;;;;;;;;;;16.03;57.33;101873.06;5025813;27;99023;-77
2022/06/03 02:54:27;;;;;;;;;;;;;;;16.31;55.99;101860.34;5023671;27;97944;-77
2022/06/03 02:57:17;;;;;;;;;;;;;;;15.97;56.63;101870.63;5032439;27;97576;-78
2022/06/03 02:59:53;;;;;;;;;;;;;;;16.06;56.14;101867.59;4970435;28;97941;-77
2022/06/03 03:02:29;;;;;;;;;;;;;;;16.16;56.17;101866.28;5023501;27;99347;-76
2022/06/03 03:05:00;;;;;;;;;;;;;;;16.19;56.05;101865.31;5039005;27;97719;-77
2022/06/03 03:07:48;;;;;;;;;;;;;;;16.47;55.33;101854.38;5026193;27;97004;-77
2022/06/03 03:10:21;;;;;;;;;;;;;;;16.66;54.52;101858.00;5005558;27;96973;-77
2022/06/03 03:13:19;;;;;;;;;;;;;;;16.12;56.07;101859.34;5024560;27;99501;-77
2022/06/03 03:15:59;;;;;;;;;;;;;;;16.10;56.74;101865.66;4968571;28;98734;-77
2022/06/03 03:18:38;;;;;;;;;;;;;;;15.91;57.44;101862.88;5015590;27;97714;-76
2022/06/03 03:21:21;;;;;;;;;;;;;;;16.16;56.73;101873.41;5022050;27;99559;-76
2022/06/03 03:24:13;;;;;;;;;;;;;;;15.96;57.35;101876.88;5022370;27;97507;-75
2022/06/03 03:26:47;;;;;;;;;;;;;;;16.00;57.45;101886.53;5023726;27;99002;-76
2022/06/03 03:29:20;;;;;;;;;;;;;;;16.07;57.35;101873.81;5033826;27;97613;-77
2022/06/03 03:31:56;;;;;;;;;;;;;;;16.69;55.79;101874.75;5026025;27;97256;-77
2022/06/03 03:34:28;;;;;;;;;;;;;;;16.59;55.66;101877.84;5031774;27;99148;-76
2022/06/03 03:37:13;;;;;;;;;;;;;;;16.66;55.11;101866.03;5032439;27;99040;-76
2022/06/03 03:39:53;;;;;;;;;;;;;;;16.52;55.77;101871.03;5030304;27;97696;-77
2022/06/03 03:42:44;;;;;;;;;;;;;;;16.41;56.41;101868.81;5030950;27;96870;-76
2022/06/03 03:45:29;;;;;;;;;;;;;;;16.58;55.88;101876.09;5031980;27;99212;-76
2022/06/03 03:48:16;;;;;;;;;;;;;;;16.40;56.78;101887.56;5025631;27;99761;-77
2022/06/03 03:50:52;;;;;;;;;;;;;;;16.89;55.44;101876.53;5028586;27;96840;-78
2022/06/03 03:53:39;;;;;;;;;;;;;;;17.09;54.82;101873.88;5022430;27;97169;-76
2022/06/03 03:56:17;;;;;;;;;;;;;;;16.60;56.09;101882.28;5025951;27;98534;-76
2022/06/03 03:58:54;;;;;;;;;;;;;;;16.70;55.91;101881.81;5026629;27;99016;-78
2022/06/03 04:01:41;;;;;;;;;;;;;;;17.04;55.07;101883.88;5036319;27;97031;-78
2022/06/03 04:04:24;;;;;;;;;;;;;;;16.97;55.73;101881.56;5002186;27;97631;-76
2022/06/03 04:07:10;;;;;;;;;;;;;;;17.30;54.70;101881.84;5026671;27;98236;-78
2022/06/03 04:09:53;;;;;;;;;;;;;;;17.34;54.40;101883.44;5026539;27;97480;-78
2022/06/03 04:12:35;;;;;;;;;;;;;;;17.72;53.59;101877.19;5026691;27;97184;-78
2022/06/03 04:15:28;;;;;;;;;;;;;;;17.96;52.69;101875.19;5030681;27;98517;-77
2022/06/03 04:18:05;;;;;;;;;;;;;;;18.02;52.59;101882.03;5023173;27;97838;-78
2022/06/03 04:20:47;;;;;;;;;;;;;;;18.25;51.69;101895.13;5019536;27;98907;-77
2022/06/03 04:23:39;;;;;;;;;;;;;;;18.35;51.05;101891.09;5039733;27;97210;-77
2022/06/03 04:26:20;;;;;;;;;;;;;;;18.39;51.10;101889.97;5025428;27;99514;-77
2022/06/03 04:28:56;;;;;;;;;;;;;;;18.74;50.01;101890.91;5027258;27;97722;-78
2022/06/03 04:31:52;;;;;;;;;;;;;;;18.84;49.75;101894.00;5027149;27;98906;-78
2022/06/03 04:34:37;;;;;;;;;;;;;;;18.79;49.99;101890.66;5029128;27;97144;-77
2022/06/03 04:37:25;;;;;;;;;;;;;;;19.14;48.87;101895.06;5031401;27;96801;-77
2022/06/03 04:40:15;;;;;;;;;;;;;;;19.29;49.37;101891.56;5024221;27;98823;-76
2022/06/03 04:43:02;;;;;;;;;;;;;;;19.34;49.08;101894.00;5015961;27;98834;-77
2022/06/03 04:45:47;;;;;;;;;;;;;;;19.53;48.23;101891.19;5027886;27;97055;-77
2022/06/03 04:48:37;;;;;;;;;;;;;;;19.66;47.76;101901.16;5028712;27;97754;-78
2022/06/03 04:51:28;;;;;;;;;;;;;;;19.55;48.39;101908.94;5030809;27;100164;-78
2022/06/03 04:54:22;;;;;;;;;;;;;;;21.84;43.03;101899.75;5024619;27;98589;-77
2022/06/03 04:57:09;;;;;;;;;;;;;;;26.27;34.20;101894.84;5029099;27;96781;-77
2022/06/03 05:00:08;;;;;;;;;;;;;;;27.54;31.15;101901.94;5029190;27;96888;-77
2022/06/03 05:02:58;;;;;;;;;;;;;;;29.00;28.94;101902.03;5022297;27;97829;-77
2022/06/03 05:05:39;;;;;;;;;;;;;;;27.08;31.10;101907.78;5022599;27;100767;-76
2022/06/03 05:08:33;;;;;;;;;;;;;;;26.01;33.12;101899.66;5033715;27;97115;-76
2022/06/03 05:11:17;;;;;;;;;;;;;;;28.09;29.76;101898.66;5024416;27;96881;-76
2022/06/03 05:14:00;;;;;;;;;;;;;;;26.44;31.65;101903.28;5023235;27;102397;-76
2022/06/03 05:16:54;;;;;;;;;;;;;;;24.47;33.90;101903.75;5025046;27;98747;-77
2022/06/03 05:19:40;;;;;;;;;;;;;;;23.75;34.97;101910.03;5026243;27;96864;-77
2022/06/03 05:22:25;;;;;;;;;;;;;;;23.30;36.14;101906.06;5025605;27;97216;-77
2022/06/03 05:25:16;;;;;;;;;;;;;;;22.87;36.50;101906.31;5022736;27;99144;-78
2022/06/03 05:28:00;;;;;;;;;;;;;;;22.25;37.61;101907.84;5024787;27;102142;-75
2022/06/03 05:30:41;;;;;;;;;;;;;;;21.85;37.63;101918.50;5030860;27;96846;-77
2022/06/03 05:33:35;;;;;;;;;;;;;;;21.84;38.44;101918.59;5016810;27;97700;-76
2022/06/03 05:36:16;;;;;;;;;;;;;;;22.02;37.95;101911.16;5033598;27;101307;-76
2022/06/03 05:38:52;;;;;;;;;;;;;;;22.18;37.62;101912.78;5024752;27;101477;-76
2022/06/03 05:44:18;;;;;;;;;;;;;;;22.30;36.99;101900.31;5025976;27;96966;-75
2022/06/03 05:46:53;;;;;;;;;;;;;;;22.33;36.67;101907.31;5031867;27;98870;-76
2022/06/03 05:49:28;;;;;;;;;;;;;;;22.33;36.42;101910.88;5034971;27;99178;-76
2022/06/03 05:52:12;;;;;;;;;;;;;;;22.52;35.90;101911.38;5039560;27;96814;-77
2022/06/03 05:54:43;;;;;;;;;;;;;;;22.10;36.34;101906.16;5033120;27;97233;-76
2022/06/03 05:57:18;;;;;;;;;;;;;;;22.48;35.65;101896.41;5029849;27;98486;-76
2022/06/03 05:59:54;;;;;;;;;;;;;;;22.55;35.13;101903.09;5026918;27;98792;-76
2022/06/03 06:02:23;;;;;;;;;;;;;;;22.74;35.04;101896.50;5045599;27;96698;-78
2022/06/03 06:05:11;;;;;;;;;;;;;;;22.60;35.28;101895.56;5036100;27;96848;-78
2022/06/03 06:07:41;;;;;;;;;;;;;;;22.97;34.76;101895.78;5028194;27;99110;-77
2022/06/03 06:10:12;;;;;;;;;;;;;;;23.06;34.45;101895.13;5039855;27;98607;-76
2022/06/03 06:12:48;;;;;;;;;;;;;;;22.67;34.92;101894.19;5037468;27;96781;-76
2022/06/03 06:15:29;;;;;;;;;;;;;;;22.80;34.56;101896.94;5027855;27;96932;-75
2022/06/03 06:18:01;;;;;;;;;;;;;;;23.05;34.17;101890.69;5028348;27;99463;-76
2022/06/03 06:20:44;;;;;;;;;;;;;;;23.04;33.86;101897.94;5031242;27;101655;-75
2022/06/03 06:23:15;;;;;;;;;;;;;;;23.14;33.45;101887.38;5030380;27;97342;-75
2022/06/03 06:25:49;;;;;;;;;;;;;;;23.19;33.09;101887.03;5032084;27;97682;-76
2022/06/03 06:28:25;;;;;;;;;;;;;;;23.16;33.00;101889.97;5033815;27;98975;-75
2022/06/03 06:30:59;;;;;;;;;;;;;;;23.39;32.98;101887.38;5029883;27;97988;-75
2022/06/03 06:33:40;;;;;;;;;;;;;;;23.52;32.37;101884.69;5039517;27;96683;-76
2022/06/03 06:36:21;;;;;;;;;;;;;;;24.25;31.56;101870.34;5027323;27;97070;-75
2022/06/03 06:38:52;;;;;;;;;;;;;;;24.19;31.35;101867.13;5036114;27;99147;-76
2022/06/03 06:41:25;;;;;;;;;;;;;;;24.21;31.26;101869.72;5030822;27;98767;-75
2022/06/03 06:43:54;;;;;;;;;;;;;;;25.02;30.01;101873.34;5029010;27;97304;-76
2022/06/03 06:46:27;;;;;;;;;;;;;;;24.85;30.27;101870.19;5044684;27;96848;-76
2022/06/03 06:49:05;;;;;;;;;;;;;;;24.91;30.07;101867.91;5036681;27;98933;-74
2022/06/03 06:51:36;;;;;;;;;;;;;;;25.35;29.05;101868.94;5027637;27;98815;-74
2022/06/03 06:54:08;;;;;;;;;;;;;;;25.21;29.32;101867.34;5025495;27;96720;-74
2022/06/03 06:56:39;;;;;;;;;;;;;;;25.60;28.95;101866.00;5038492;27;96841;-75
2022/06/03 06:59:07;;;;;;;;;;;;;;;25.22;29.70;101862.78;5041532;27;99149;-74
2022/06/03 07:01:36;;;;;;;;;;;;;;;24.88;29.58;101876.22;5037025;27;98776;-75
2022/06/03 07:04:06;;;;;;;;;;;;;;;24.89;29.82;101866.28;5040622;27;96635;-74
2022/06/03 07:06:41;;;;;;;;;;;;;;;24.81;30.38;101864.16;5040778;27;96968;-74
2022/06/03 07:09:24;;;;;;;;;;;;;;;24.54;30.17;101866.31;5035568;27;98356;-75
2022/06/03 07:11:54;;;;;;;;;;;;;;;24.34;30.51;101859.72;5036755;27;98672;-74
2022/06/03 07:14:23;;;;;;;;;;;;;;;24.27;30.84;101857.59;5042221;27;96783;-75
2022/06/03 07:19:50;;;;;;;;;;;;;;;25.07;29.44;101856.78;5022132;27;97150;-75
2022/06/03 07:22:20;;;;;;;;;;;;;;;24.53;30.39;101856.47;5047751;27;99078;-74
2022/06/03 07:24:52;;;;;;;;;;;;;;;24.77;30.20;101851.88;5047656;27;97243;-74
2022/06/03 07:27:23;;;;;;;;;;;;;;;25.02;29.52;101848.13;5033677;27;96914;-75
2022/06/03 07:29:57;;;;;;;;;;;;;;;25.05;29.47;101850.63;5040423;27;101333;-75
2022/06/03 07:32:26;;;;;;;;;;;;;;;25.33;28.58;101849.28;5028332;27;98775;-75
2022/06/03 07:34:53;;;;;;;;;;;;;;;25.22;28.31;101846.56;5036635;27;96804;-75
2022/06/03 07:37:24;;;;;;;;;;;;;;;24.91;29.03;101846.28;5050559;27;96943;-74
2022/06/03 07:39:53;;;;;;;;;;;;;;;25.23;29.08;101849.16;5026111;27;99700;-74
2022/06/03 07:42:27;;;;;;;;;;;;;;;24.44;29.67;101835.56;5047273;27;100625;-74
2022/06/03 07:45:00;;;;;;;;;;;;;;;24.54;29.71;101837.47;5047761;27;96957;-75
2022/06/03 07:47:30;;;;;;;;;;;;;;;24.63;29.74;101843.97;5034037;27;96779;-73
2022/06/03 07:49:59;;;;;;;;;;;;;;;24.30;29.91;101835.75;5045175;27;98339;-74
2022/06/03 07:52:33;;;;;;;;;;;;;;;24.49;29.51;101830.66;5033044;27;101219;-75
2022/06/03 07:55:05;;;;;;;;;;;;;;;24.60;29.58;101828.88;5044522;27;96685;-74
2022/06/03 07:57:32;;;;;;;;;;;;;;;25.22;28.74;101822.22;5043126;27;97116;-76
2022/06/03 07:59:59;;;;;;;;;;;;;;;25.06;28.33;101829.84;5043656;27;99093;-75
2022/06/03 08:02:26;;;;;;;;;;;;;;;25.46;28.22;101825.66;5023650;27;99313;-76
2022/06/03 08:05:02;;;;;;;;;;;;;;;25.66;28.15;101822.22;5028665;27;97098;-75
2022/06/03 08:13:03;;;;;;;;;;;;;;;25.49;27.34;101827.25;5033549;27;97634;-75
2022/06/03 08:15:30;;;;;;;;;;;;;;;25.83;27.22;101825.38;5029546;27;97257;-75
2022/06/03 08:17:57;;;;;;;;;;;;;;;25.83;26.86;101823.53;5030783;27;96787;-74
2022/06/03 08:20:25;;;;;;;;;;;;;;;26.04;26.73;101812.78;5021797;27;99051;-74
2022/06/03 08:22:52;;;;;;;;;;;;;;;25.74;27.27;101821.56;5035025;27;99258;-75
2022/06/03 08:25:24;;;;;;;;;;;;;;;25.63;27.05;101818.91;5034705;27;96827;-74
2022/06/03 08:27:51;;;;;;;;;;;;;;;25.84;26.93;101821.69;5028246;27;96839;-73
2022/06/03 08:30:19;;;;;;;;;;;;;;;25.76;26.99;101816.91;5028377;27;99265;-74
2022/06/03 08:32:48;;;;;;;;;;;;;;;25.54;27.46;101817.75;5039792;27;97552;-74
2022/06/03 08:35:17;;;;;;;;;;;;;;;25.19;27.52;101830.59;5026017;27;96824;-75
2022/06/03 08:37:47;;;;;;;;;;;;;;;25.77;27.32;101824.91;5028868;27;96817;-75
2022/06/03 08:40:23;;;;;;;;;;;;;;;25.73;26.57;101817.19;5022212;27;98938;-75
2022/06/03 08:42:55;;;;;;;;;;;;;;;25.99;26.99;101826.69;5025838;27;99118;-74
2022/06/03 08:45:25;;;;;;;;;;;;;;;26.39;25.69;101824.22;5040852;27;96856;-75
2022/06/03 08:47:53;;;;;;;;;;;;;;;26.02;26.73;101825.56;5018400;27;96956;-76
2022/06/03 08:50:27;;;;;;;;;;;;;;;26.02;26.01;101815.59;5033674;27;99124;-74
2022/06/03 08:52:56;;;;;;;;;;;;;;;26.45;25.78;101804.72;5027241;27;99278;-74
2022/06/03 08:55:34;;;;;;;;;;;;;;;26.04;26.73;101808.22;5024048;27;96782;-75
2022/06/03 08:58:06;;;;;;;;;;;;;;;25.71;26.51;101803.75;5037107;27;96814;-74
2022/06/03 09:00:35;;;;;;;;;;;;;;;25.11;27.45;101811.41;5018090;27;96792;-74
2022/06/03 09:03:09;;;;;;;;;;;;;;;25.24;26.96;101807.59;5031780;27;101372;-75
2022/06/03 09:05:38;;;;;;;;;;;;;;;25.75;26.25;101797.09;5037561;27;97184;-75
2022/06/03 09:08:11;;;;;;;;;;;;;;;25.95;26.40;101797.28;5037717;27;97302;-73
2022/06/03 09:10:41;;;;;;;;;;;;;;;25.86;26.74;101795.34;5028607;27;97576;-74
2022/06/03 09:13:12;;;;;;;;;;;;;;;25.00;27.44;101796.91;5023085;27;98832;-75
2022/06/03 09:15:40;;;;;;;;;;;;;;;24.73;27.92;101798.19;5029175;27;96798;-74
2022/06/03 09:18:10;;;;;;;;;;;;;;;24.74;28.29;101803.47;5027204;27;96919;-75
2022/06/03 09:20:39;;;;;;;;;;;;;;;24.24;28.70;101804.66;5018832;27;97694;-74
2022/06/03 09:23:07;;;;;;;;;;;;;;;24.43;28.62;101790.59;5031032;27;99105;-74
2022/06/03 09:25:35;;;;;;;;;;;;;;;25.04;27.72;101793.94;5040948;27;96765;-74
2022/06/03 09:28:04;;;;;;;;;;;;;;;24.64;27.87;101780.84;5026357;27;97494;-74
2022/06/03 09:30:33;;;;;;;;;;;;;;;24.54;27.96;101788.81;5030035;27;98161;-74
2022/06/03 09:33:05;;;;;;;;;;;;;;;25.12;26.71;101783.38;5030854;27;99566;-74
2022/06/03 09:35:32;;;;;;;;;;;;;;;25.38;26.17;101780.28;5029298;27;96777;-75
2022/06/03 09:38:01;;;;;;;;;;;;;;;24.96;26.67;101776.47;5030881;27;96813;-74
2022/06/03 09:40:29;;;;;;;;;;;;;;;24.63;27.30;101773.72;5028178;27;98882;-75
2022/06/03 09:42:59;;;;;;;;;;;;;;;25.38;26.39;101766.75;5024481;27;98849;-75
2022/06/03 09:45:26;;;;;;;;;;;;;;;25.23;26.36;101762.59;5024567;27;97331;-74
2022/06/03 09:47:54;;;;;;;;;;;;;;;25.64;25.69;101771.91;5028166;27;97598;-74
2022/06/03 09:50:22;;;;;;;;;;;;;;;25.69;25.83;101770.53;5029613;27;98773;-75
2022/06/03 09:52:48;;;;;;;;;;;;;;;25.70;26.26;101763.28;5029311;27;98844;-75
2022/06/03 09:55:25;;;;;;;;;;;;;;;25.38;26.81;101765.91;5031197;27;97159;-74
2022/06/03 09:57:53;;;;;;;;;;;;;;;25.25;26.69;101755.22;5031466;27;96956;-75
2022/06/03 10:00:21;;;;;;;;;;;;;;;25.84;26.04;101757.56;5028050;27;98956;-75
2022/06/03 10:02:48;;;;;;;;;;;;;;;25.39;26.27;101752.25;5026809;27;98839;-75
2022/06/03 10:05:16;;;;;;;;;;;;;;;25.79;25.90;101757.97;5041036;27;96838;-75
2022/06/03 10:07:43;;;;;;;;;;;;;;;25.49;26.16;101748.78;5034843;27;96843;-74
2022/06/03 10:12:53;;;;;;;;;;;;;;;25.97;24.61;101738.44;4984408;28;97349;-74
2022/06/03 10:18:23;;;;;;;;;;;;;;;25.85;24.85;101737.63;4960556;28;97200;-74
2022/06/03 10:20:52;;;;;;;;;;;;;;;26.08;25.44;101741.09;5016127;27;99202;-74
2022/06/03 10:23:20;;;;;;;;;;;;;;;26.00;25.66;101747.16;5029237;27;98935;-75
2022/06/03 10:25:49;;;;;;;;;;;;;;;25.80;25.49;101740.72;5032617;27;97114;-75
2022/06/03 10:28:16;;;;;;;;;;;;;;;25.94;24.98;101744.09;5024096;27;97108;-75
2022/06/03 10:30:43;;;;;;;;;;;;;;;26.10;24.26;101744.53;5023577;27;98988;-75
2022/06/03 10:33:15;;;;;;;;;;;;;;;26.06;24.71;101732.22;5026916;27;99506;-75
2022/06/03 10:35:42;;;;;;;;;;;;;;;26.19;24.74;101731.06;5029157;27;97620;-74
2022/06/03 10:38:10;;;;;;;;;;;;;;;26.10;24.96;101739.13;5026144;27;97908;-75
2022/06/03 10:40:39;;;;;;;;;;;;;;;26.26;24.76;101742.25;5019384;27;98687;-74
2022/06/03 10:43:06;;;;;;;;;;;;;;;26.18;24.93;101736.63;5029071;27;98905;-74
2022/06/03 10:45:33;;;;;;;;;;;;;;;26.26;24.55;101736.84;5025024;27;96872;-75
2022/06/03 10:48:00;;;;;;;;;;;;;;;26.28;24.49;101734.88;5018468;27;97124;-74
2022/06/03 10:50:27;;;;;;;;;;;;;;;26.57;24.35;101716.94;5024463;27;97742;-74
2022/06/03 11:01:26;;;;;;;;;;;;;;;25.55;24.91;101711.25;5018915;27;97205;-74
2022/06/03 11:03:54;;;;;;;;;;;;;;;26.17;24.68;101711.38;5024559;27;101922;-74
2022/06/03 11:06:22;;;;;;;;;;;;;;;25.93;25.16;101712.63;5022034;27;97466;-75
2022/06/03 11:08:50;;;;;;;;;;;;;;;25.45;25.09;101710.31;5021928;27;96906;-74
2022/06/03 11:11:30;;;;;;;;;;;;;;;25.67;25.69;101704.84;5033819;27;98932;-75
2022/06/03 11:13:56;;;;;;;;;;;;;;;25.49;24.71;101700.06;5024440;27;98639;-74
2022/06/03 11:16:23;;;;;;;;;;;;;;;25.52;25.31;101702.53;5031806;27;97867;-74
2022/06/03 11:18:50;;;;;;;;;;;;;;;26.33;24.69;101700.09;5030568;27;97212;-75
2022/06/03 11:21:19;;;;;;;;;;;;;;;26.17;24.57;101691.56;5027609;27;99381;-75
2022/06/03 11:23:45;;;;;;;;;;;;;;;26.10;24.07;101695.78;5029584;27;99220;-75
2022/06/03 11:26:12;;;;;;;;;;;;;;;26.16;24.67;101688.00;5034641;27;97070;-75
2022/06/03 11:28:44;;;;;;;;;;;;;;;26.42;24.65;101688.47;5024912;27;96838;-75
2022/06/03 11:31:13;;;;;;;;;;;;;;;26.63;25.14;101676.75;5022195;27;99354;-75
2022/06/03 11:33:43;;;;;;;;;;;;;;;26.76;23.66;101666.53;5029766;27;100701;-76
2022/06/03 11:36:12;;;;;;;;;;;;;;;26.69;24.18;101652.66;5020711;27;97030;-75
2022/06/03 11:38:40;;;;;;;;;;;;;;;26.42;24.64;101655.94;5026112;27;96793;-75
2022/06/03 11:41:08;;;;;;;;;;;;;;;26.35;24.82;101649.34;5018710;27;99121;-75
2022/06/03 11:43:37;;;;;;;;;;;;;;;26.37;24.61;101641.09;5023550;27;99214;-76
2022/06/03 11:46:06;;;;;;;;;;;;;;;26.25;24.52;101643.03;5031929;27;96824;-74
2022/06/03 11:48:35;;;;;;;;;;;;;;;26.00;24.53;101636.13;5026396;27;96882;-74
2022/06/03 11:51:01;;;;;;;;;;;;;;;26.48;23.88;101628.31;5025279;27;99392;-74
2022/06/03 11:53:29;;;;;;;;;;;;;;;26.60;24.71;101626.34;5018525;27;100890;-74
2022/06/03 11:55:57;;;;;;;;;;;;;;;26.47;24.39;101625.72;5021099;27;97553;-75
2022/06/03 11:58:29;;;;;;;;;;;;;;;26.85;23.72;101619.59;5024085;27;96897;-75
2022/06/03 12:00:59;;;;;;;;;;;;;;;27.05;23.70;101620.53;5020110;27;98905;-74
2022/06/03 12:03:35;;;;;;;;;;;;;;;25.62;25.13;101614.19;5024648;27;99391;-75
2022/06/03 12:06:04;;;;;;;;;;;;;;;26.50;24.18;101610.06;5020159;27;97539;-74
2022/06/03 12:08:34;;;;;;;;;;;;;;;26.94;23.55;101611.53;5020247;27;96791;-73
2022/06/03 12:11:04;;;;;;;;;;;;;;;26.85;23.81;101600.59;5029874;27;99062;-74
2022/06/03 12:13:31;;;;;;;;;;;;;;;27.00;23.64;101598.38;5025422;27;98934;-75
2022/06/03 12:16:02;;;;;;;;;;;;;;;26.87;24.40;101602.19;5029365;27;96844;-76
2022/06/03 12:18:52;;;;;;;;;;;;;;;26.86;24.35;101594.19;5031477;27;97018;-75
2022/06/03 12:21:33;;;;;;;;;;;;;;;27.13;23.46;101590.84;5025991;27;98896;-75
2022/06/03 12:24:19;;;;;;;;;;;;;;;27.41;23.31;101589.16;5035150;27;98769;-74
2022/06/03 12:26:47;;;;;;;;;;;;;;;27.02;23.45;101597.25;5021609;27;97044;-75
2022/06/03 12:29:18;;;;;;;;;;;;;;;27.35;23.30;101580.59;5020148;27;97061;-74
2022/06/03 12:31:46;;;;;;;;;;;;;;;27.19;23.86;101574.84;5022215;27;99030;-75
2022/06/03 12:34:20;;;;;;;;;;;;;;;27.09;23.96;101579.44;5021857;27;98941;-75
2022/06/03 12:36:51;;;;;;;;;;;;;;;26.16;24.27;101568.81;5021163;27;96743;-75
2022/06/03 12:39:23;;;;;;;;;;;;;;;27.16;23.09;101572.44;5019669;27;97064;-75
2022/06/03 12:42:13;;;;;;;;;;;;;;;27.05;23.76;101571.69;5024350;27;98923;-74
2022/06/03 12:44:44;;;;;;;;;;;;;;;26.86;23.94;101561.66;5021616;27;101458;-74
2022/06/03 12:47:29;;;;;;;;;;;;;;;27.25;24.03;101555.28;5020779;27;96867;-75
2022/06/03 12:49:57;;;;;;;;;;;;;;;27.20;23.75;101551.31;5021708;27;97138;-75
2022/06/03 12:52:37;;;;;;;;;;;;;;;27.88;22.75;101544.84;5019089;27;97823;-75
2022/06/03 12:55:07;;;;;;;;;;;;;;;27.46;22.61;101540.72;5028245;27;98702;-74
2022/06/03 12:57:39;;;;;;;;;;;;;;;27.39;22.98;101535.00;5023591;27;98205;-74
2022/06/03 13:00:07;;;;;;;;;;;;;;;27.27;23.13;101534.31;5023155;27;96829;-75
2022/06/03 13:02:36;;;;;;;;;;;;;;;27.58;22.93;101520.59;5018372;27;98827;-75
2022/06/03 13:05:11;;;;;;;;;;;;;;;27.57;23.48;101522.44;5018843;27;100067;-75
2022/06/03 13:07:55;;;;;;;;;;;;;;;28.17;22.43;101517.59;5029422;27;96981;-75
2022/06/03 13:10:30;;;;;;;;;;;;;;;28.51;20.79;101515.13;5020124;27;96904;-75
2022/06/03 13:13:17;;;;;;;;;;;;;;;29.19;19.86;101515.53;5025440;27;99826;-74
2022/06/03 13:15:45;;;;;;;;;;;;;;;29.05;19.31;101507.91;5018946;27;99103;-74
2022/06/03 13:18:13;;;;;;;;;;;;;;;29.71;19.17;101508.31;5019601;27;97372;-74
2022/06/03 13:20:41;;;;;;;;;;;;;;;30.38;17.50;101515.69;5026016;27;97533;-75
2022/06/03 13:23:25;;;;;;;;;;;;;;;31.26;17.02;101510.63;5023451;27;99227;-75
2022/06/03 13:25:54;;;;;;;;;;;;;;;30.73;17.92;101508.31;5027888;27;99206;-75
2022/06/03 13:28:31;;;;;;;;;;;;;;;30.74;18.24;101513.59;5020853;27;96760;-74
2022/06/03 13:31:19;;;;;;;;;;;;;;;31.53;17.67;101509.44;5012991;28;98644;-74
2022/06/03 13:34:04;;;;;;;;;;;;;;;31.80;17.30;101506.34;5016350;27;98491;-74
2022/06/03 13:36:31;;;;;;;;;;;;;;;32.79;16.82;101503.06;5017478;27;98925;-74
2022/06/03 13:38:58;;;;;;;;;;;;;;;33.31;15.61;101496.91;5019486;27;96850;-74
2022/06/03 13:44:37;;;;;;;;;;;;;;;34.75;14.92;101489.94;5017725;27;97183;-74
2022/06/03 13:47:06;;;;;;;;;;;;;;;35.37;13.81;101492.06;5029402;27;97446;-78